Weather History for Kaiser, MO

Change the Weather History Date:

Sunday, December 30, 2012

  Actual Average Record
Temperature  
Mean Temperature 30 °F -  
Max Temperature 44 °F 40 °F 69 °F (2004)
Min Temperature 15 °F 23 °F 6 °F (2013)
Degree Days  
Heating Degree Days 36    
Moisture  
Dew Point 15 °F    
Average Humidity 54    
Maximum Humidity 86    
Minimum Humidity 27    
Precipitation  
Precipitation 0.00 in - - ()
Sea Level Pressure  
Sea Level Pressure 30.33 in    
Wind  
Wind Speed 6 mph (SSW)    
Max Wind Speed 20 mph    
Max Gust Speed 26 mph    
Visibility 10 miles    
Events      
Averages and records for this station are not official NWS values.
T = Trace of Precipitation, MM = Missing Value Source: NWS Daily Summary

Daily Weather History Graph

Daily Weather History Graph

Search for Another Location

Airport:

Trip Planner

Search our weather history database for the weather conditions in past years. The results will help you decide how hot, cold, wet, or windy it might be!

Date:

Astronomy

Dec. 30, 2012 Rise Set
Actual Time 7:26 AM CST 4:59 PM CST
Civil Twilight 6:56 AM CST 5:29 PM CST
Nautical Twilight 6:23 AM CST 6:02 PM CST
Astronomical Twilight 5:51 AM CST 6:34 PM CST
Moon 7:29 PM CST (12/30) 8:37 AM CST (12/30)
Length of Visible Light 10h 32m
Length of Day
9h 33m
Waning Gibbous, 95% of the Moon is Illuminated
Dec 30
Waning Gibbous
Jan 4
Last Quarter
Jan 11
New
Jan 18
First Quarter
Jan 26
Full

Hourly Weather History & Observations

Time (CST) Temp. Windchill Dew Point Humidity Pressure Visibility Wind Dir Wind Speed Gust Speed Precip Events Conditions
12:15 AM 19.4 °F 14.3 °F 14.0 °F 80% 30.36 in 10.0 mi SSW 3.5 mph - N/A   Clear
12:35 AM 19.4 °F 12.8 °F 12.2 °F 74% 30.37 in 10.0 mi SW 4.6 mph - N/A   Clear
12:55 AM 19.4 °F 14.3 °F 14.0 °F 80% 30.37 in 10.0 mi WSW 3.5 mph - N/A   Clear
1:15 AM 24.8 °F 19.1 °F 15.8 °F 69% 30.38 in 10.0 mi WSW 4.6 mph - N/A   Clear
1:35 AM 24.8 °F 20.5 °F 15.8 °F 69% 30.38 in 10.0 mi WSW 3.5 mph - N/A   Clear
1:55 AM 21.2 °F 16.4 °F 12.2 °F 68% 30.38 in 10.0 mi WSW 3.5 mph - N/A   Clear
2:15 AM 23.0 °F 18.4 °F 14.0 °F 68% 30.38 in 10.0 mi WSW 3.5 mph - N/A   Clear
2:35 AM 21.2 °F 14.9 °F 12.2 °F 68% 30.40 in 10.0 mi WSW 4.6 mph - N/A   Clear
2:55 AM 23.0 °F 17.0 °F 14.0 °F 68% 30.40 in 10.0 mi WSW 4.6 mph - N/A   Clear
3:15 AM 19.4 °F 12.8 °F 10.4 °F 68% 30.39 in 10.0 mi WSW 4.6 mph - N/A   Clear
3:35 AM 19.4 °F 14.3 °F 10.4 °F 68% 30.39 in 10.0 mi WSW 3.5 mph - N/A   Clear
3:55 AM 17.6 °F - 12.2 °F 79% 30.39 in 10.0 mi Calm Calm - N/A   Clear
4:15 AM 19.4 °F - 14.0 °F 80% 30.39 in 10.0 mi Calm Calm - N/A   Clear
4:35 AM 17.6 °F - 12.2 °F 79% 30.39 in 10.0 mi Calm Calm - N/A   Clear
4:55 AM 17.6 °F - 12.2 °F 79% 30.39 in 10.0 mi Calm Calm - N/A   Clear
5:15 AM 17.6 °F 10.7 °F 12.2 °F 79% 30.39 in 10.0 mi South 4.6 mph - N/A   Clear
5:35 AM 15.8 °F 10.2 °F 10.4 °F 79% 30.39 in 10.0 mi South 3.5 mph - N/A   Clear
6:15 AM 15.8 °F - 12.2 °F 86% 30.40 in 10.0 mi Calm Calm - N/A   Clear
6:35 AM 15.8 °F 10.2 °F 12.2 °F 86% 30.40 in 10.0 mi SE 3.5 mph - N/A   Clear
6:55 AM 17.6 °F 10.7 °F 12.2 °F 79% 30.41 in 10.0 mi SE 4.6 mph - N/A   Clear
7:15 AM 19.4 °F 12.8 °F 12.2 °F 74% 30.41 in 10.0 mi SSE 4.6 mph - N/A   Clear
7:35 AM 17.6 °F - 12.2 °F 79% 30.41 in 10.0 mi Calm Calm - N/A   Clear
7:55 AM 17.6 °F 12.3 °F 12.2 °F 79% 30.41 in 10.0 mi South 3.5 mph - N/A   Clear
8:15 AM 19.4 °F 12.8 °F 14.0 °F 80% 30.40 in 10.0 mi SSE 4.6 mph - N/A   Clear
8:35 AM 21.2 °F 14.9 °F 15.8 °F 80% 30.41 in 10.0 mi SSE 4.6 mph - N/A   Clear
8:55 AM 23.0 °F 18.4 °F 15.8 °F 74% 30.40 in 10.0 mi SE 3.5 mph - N/A   Clear
9:15 AM 24.8 °F 20.5 °F 15.8 °F 69% 30.40 in 10.0 mi SSE 3.5 mph - N/A   Clear
9:35 AM 28.4 °F 23.3 °F 17.6 °F 64% 30.40 in 10.0 mi SE 4.6 mph - N/A   Clear
9:55 AM 28.4 °F 24.6 °F 17.6 °F 64% 30.41 in 10.0 mi SSE 3.5 mph - N/A   Clear
10:15 AM 30.2 °F 26.7 °F 19.4 °F 64% 30.43 in 10.0 mi South 3.5 mph - N/A   Clear
10:35 AM 33.8 °F 30.8 °F 19.4 °F 56% 30.43 in 10.0 mi South 3.5 mph - N/A   Clear
10:55 AM 37.4 °F 33.8 °F 21.2 °F 52% 30.41 in 10.0 mi South 4.6 mph - N/A   Clear
11:15 AM 39.2 °F 32.0 °F 21.2 °F 49% 30.40 in 10.0 mi SW 11.5 mph - N/A   Clear
11:35 AM 42.8 °F 37.5 °F 21.2 °F 42% 30.38 in 10.0 mi SSW 9.2 mph 16.1 mph N/A   Clear
11:55 AM 42.8 °F 37.0 °F 21.2 °F 42% 30.37 in 10.0 mi SSW 10.4 mph - N/A   Clear
12:15 PM 42.8 °F 35.8 °F 17.6 °F 36% 30.35 in 10.0 mi SW 13.8 mph - N/A   Clear
12:35 PM 44.6 °F 37.2 °F 17.6 °F 34% 30.33 in 10.0 mi SSW 17.3 mph - N/A   Clear
12:55 PM 44.6 °F 39.7 °F 17.6 °F 34% 30.32 in 10.0 mi SSW 9.2 mph 17.3 mph N/A   Clear
1:15 PM 44.6 °F 39.2 °F 17.6 °F 34% 30.31 in 10.0 mi SSW 10.4 mph 17.3 mph N/A   Clear
1:35 PM 44.6 °F 38.1 °F 15.8 °F 31% 30.31 in 10.0 mi SW 13.8 mph - N/A   Clear
1:55 PM 44.6 °F 36.6 °F 15.8 °F 31% 30.32 in 10.0 mi SW 19.6 mph 26.5 mph N/A   Clear
2:15 PM 44.6 °F 38.8 °F 14.0 °F 29% 30.31 in 10.0 mi SW 11.5 mph 21.9 mph N/A   Clear
2:35 PM 44.6 °F 38.1 °F 15.8 °F 31% 30.30 in 10.0 mi SW 13.8 mph - N/A   Clear
2:55 PM 44.6 °F 37.4 °F 14.0 °F 29% 30.31 in 10.0 mi SSW 16.1 mph 20.7 mph N/A   Clear
3:15 PM 44.6 °F 38.8 °F 14.0 °F 29% 30.29 in 10.0 mi SSW 11.5 mph 18.4 mph N/A   Clear
3:35 PM 44.6 °F 38.4 °F 12.2 °F 27% 30.28 in 10.0 mi SSW 12.7 mph - N/A   Clear
3:55 PM 44.6 °F 38.8 °F 12.2 °F 27% 30.28 in 10.0 mi SSW 11.5 mph - N/A   Clear
4:15 PM 42.8 °F 37.0 °F 12.2 °F 29% 30.28 in 10.0 mi SSW 10.4 mph - N/A   Clear
4:35 PM 42.8 °F 38.0 °F 12.2 °F 29% 30.29 in 10.0 mi SSW 8.1 mph - N/A   Clear
4:55 PM 41.0 °F 34.7 °F 14.0 °F 33% 30.28 in 10.0 mi SSW 10.4 mph - N/A   Clear
5:15 PM 41.0 °F 35.2 °F 14.0 °F 33% 30.28 in 10.0 mi SSW 9.2 mph - N/A   Clear
5:35 PM 41.0 °F 34.7 °F 14.0 °F 33% 30.27 in 10.0 mi SSW 10.4 mph - N/A   Clear
5:55 PM 39.2 °F 33.6 °F 14.0 °F 36% 30.27 in 10.0 mi SSW 8.1 mph - N/A   Clear
6:15 PM 39.2 °F 33.0 °F 14.0 °F 36% 30.27 in 10.0 mi SSW 9.2 mph - N/A   Clear
6:35 PM 39.2 °F 33.6 °F 15.8 °F 39% 30.27 in 10.0 mi SSW 8.1 mph - N/A   Clear
6:55 PM 37.4 °F 30.8 °F 15.8 °F 41% 30.26 in 10.0 mi South 9.2 mph - N/A   Clear
7:15 PM 37.4 °F 30.8 °F 15.8 °F 41% 30.26 in 10.0 mi South 9.2 mph - N/A   Clear
7:35 PM 37.4 °F 31.4 °F 17.6 °F 45% 30.25 in 10.0 mi South 8.1 mph - N/A   Clear
7:55 PM 37.4 °F 30.8 °F 17.6 °F 45% 30.25 in 10.0 mi South 9.2 mph - N/A   Clear
8:15 PM 37.4 °F 29.8 °F 17.6 °F 45% 30.24 in 10.0 mi South 11.5 mph - N/A   Clear
8:35 PM 37.4 °F 32.1 °F 17.6 °F 45% 30.24 in 10.0 mi South 6.9 mph - N/A   Clear
8:55 PM 37.4 °F 30.8 °F 17.6 °F 45% 30.23 in 10.0 mi South 9.2 mph - N/A   Clear
9:15 PM 37.4 °F 30.8 °F 17.6 °F 45% 30.23 in 10.0 mi South 9.2 mph - N/A   Clear
9:55 PM 37.4 °F 31.4 °F 17.6 °F 45% 30.23 in 10.0 mi South 8.1 mph - N/A   Clear
10:15 PM 37.4 °F 32.8 °F 17.6 °F 45% 30.23 in 10.0 mi South 5.8 mph - N/A   Clear
10:35 PM 35.6 °F 30.7 °F 17.6 °F 48% 30.22 in 10.0 mi South 5.8 mph - N/A   Clear
10:55 PM 35.6 °F 30.7 °F 17.6 °F 48% 30.22 in 10.0 mi South 5.8 mph - N/A   Clear
11:15 PM 35.6 °F 31.7 °F 17.6 °F 48% 30.22 in 10.0 mi South 4.6 mph - N/A   Clear
11:35 PM 35.6 °F 30.7 °F 17.6 °F 48% 30.23 in 10.0 mi South 5.8 mph - N/A   Clear
11:55 PM 35.6 °F 29.9 °F 17.6 °F 48% 30.23 in 10.0 mi SSW 6.9 mph - N/A   Clear